Time;durP1;ratioP1;P1;durP2;ratioP2;P2;SDS_P1;SDS_P2;PMS_P1;PMS_P2;Temp;Humidity;BMP_temperature;BMP_pressure;BME280_temperature;BME280_humidity;BME280_pressure;Samples;Min_cycle;Max_cycle;Signal;HPM_P1;HPM_P2
2023/07/20 00:02:09;;;;;;;;;;;28.50;56.50;;;;;;4990124;28;88548;-54
2023/07/20 00:04:35;;;;;;;;;;;28.50;56.50;;;;;;4992780;28;88184;-55
2023/07/20 00:07:00;;;;;;;;;;;28.40;56.50;;;;;;4991331;28;87283;-56
2023/07/20 00:09:26;;;;;;;;;;;28.40;56.50;;;;;;4992064;28;88193;-52
2023/07/20 00:11:52;;;;;;;;;;;28.40;56.40;;;;;;4991515;28;89586;-54
2023/07/20 00:14:18;;;;;;;;;;;28.40;56.40;;;;;;4985432;28;87189;-56
2023/07/20 00:16:46;;;;;;;;;;;28.40;56.40;;;;;;4991018;28;88848;-55
2023/07/20 00:19:16;;;;;;;;;;;28.40;56.40;;;;;;4989915;28;89245;-56
2023/07/20 00:21:42;;;;;;;;;;;28.40;56.40;;;;;;4988398;28;87291;-59
2023/07/20 00:24:08;;;;;;;;;;;28.40;56.40;;;;;;4992103;28;89003;-54
2023/07/20 00:26:33;;;;;;;;;;;28.30;56.40;;;;;;4990861;28;87922;-55
2023/07/20 00:28:59;;;;;;;;;;;28.30;56.50;;;;;;4990668;28;90265;-54
2023/07/20 00:31:24;;;;;;;;;;;28.30;56.40;;;;;;4989862;28;88179;-53
2023/07/20 00:33:50;;;;;;;;;;;28.30;56.50;;;;;;4991417;28;87130;-59
2023/07/20 00:36:16;;;;;;;;;;;28.30;56.50;;;;;;4991613;28;88859;-54
2023/07/20 00:38:42;;;;;;;;;;;28.30;56.40;;;;;;4990810;28;88080;-54
2023/07/20 00:41:07;;;;;;;;;;;28.20;56.40;;;;;;4993042;28;86354;-51
2023/07/20 00:43:33;;;;;;;;;;;28.20;56.60;;;;;;4992421;28;87073;-52
2023/07/20 00:45:59;;;;;;;;;;;28.20;56.40;;;;;;4992896;28;87180;-55
2023/07/20 00:48:24;;;;;;;;;;;28.20;56.60;;;;;;4988191;28;88052;-58
2023/07/20 00:50:50;;;;;;;;;;;28.20;56.50;;;;;;4993130;28;89230;-53
2023/07/20 00:53:16;;;;;;;;;;;28.20;56.40;;;;;;4989658;28;87188;-51
2023/07/20 00:55:41;;;;;;;;;;;28.10;56.50;;;;;;4992769;28;87351;-52
2023/07/20 00:58:07;;;;;;;;;;;28.10;56.50;;;;;;4989961;28;88224;-52
2023/07/20 01:00:33;;;;;;;;;;;28.10;56.50;;;;;;4989679;28;87210;-51
2023/07/20 01:02:58;;;;;;;;;;;28.10;56.50;;;;;;4992194;28;88356;-55
2023/07/20 01:05:32;;;;;;;;;;;28.10;56.60;;;;;;4991253;28;86352;-55
2023/07/20 01:08:09;;;;;;;;;;;28.10;56.50;;;;;;4996404;28;87034;-51
2023/07/20 01:10:39;;;;;;;;;;;28.00;56.40;;;;;;4990829;28;88785;-54
2023/07/20 01:13:06;;;;;;;;;;;28.00;56.50;;;;;;4993522;28;87979;-53
2023/07/20 01:15:33;;;;;;;;;;;28.00;56.60;;;;;;4995497;28;89023;-58
2023/07/20 01:18:01;;;;;;;;;;;27.90;56.60;;;;;;4993185;28;87340;-54
2023/07/20 01:20:28;;;;;;;;;;;27.90;56.50;;;;;;4992161;28;87270;-53
2023/07/20 01:23:05;;;;;;;;;;;27.90;56.50;;;;;;4995658;28;87381;-55
2023/07/20 01:25:40;;;;;;;;;;;27.90;56.60;;;;;;4997220;28;87999;-52
2023/07/20 01:28:24;;;;;;;;;;;27.90;56.60;;;;;;4992545;28;87126;-55
2023/07/20 01:30:55;;;;;;;;;;;27.90;56.50;;;;;;4992025;28;86534;-58
2023/07/20 01:33:21;;;;;;;;;;;27.90;56.60;;;;;;4991110;28;88567;-51
2023/07/20 01:35:56;;;;;;;;;;;27.90;56.60;;;;;;4992907;28;87023;-51
2023/07/20 01:38:23;;;;;;;;;;;27.80;56.60;;;;;;4992964;28;89957;-58
2023/07/20 01:40:49;;;;;;;;;;;27.80;56.40;;;;;;4994383;28;87382;-52
2023/07/20 01:43:14;;;;;;;;;;;27.80;56.50;;;;;;4993171;28;88070;-53
2023/07/20 01:45:40;;;;;;;;;;;27.80;56.60;;;;;;4991246;28;87910;-58
2023/07/20 01:48:05;;;;;;;;;;;27.70;56.50;;;;;;4992151;28;87458;-54
2023/07/20 01:50:31;;;;;;;;;;;27.70;56.50;;;;;;4995345;28;88073;-54
2023/07/20 01:52:57;;;;;;;;;;;27.70;56.60;;;;;;4991872;28;88445;-52
2023/07/20 01:55:22;;;;;;;;;;;27.70;56.60;;;;;;4995987;28;87384;-49
2023/07/20 01:57:48;;;;;;;;;;;27.70;56.60;;;;;;4992168;28;88110;-59
2023/07/20 02:00:13;;;;;;;;;;;27.70;56.60;;;;;;4994028;28;87204;-57
2023/07/20 02:02:39;;;;;;;;;;;27.70;56.50;;;;;;4991906;28;88064;-53
2023/07/20 02:05:05;;;;;;;;;;;27.60;56.50;;;;;;4992966;28;88039;-54
2023/07/20 02:07:31;;;;;;;;;;;27.70;56.60;;;;;;4993848;28;87280;-54
2023/07/20 02:09:56;;;;;;;;;;;27.60;56.50;;;;;;4996642;28;87053;-51
2023/07/20 02:12:22;;;;;;;;;;;27.60;56.50;;;;;;4992960;28;87189;-49
2023/07/20 02:14:47;;;;;;;;;;;27.60;56.60;;;;;;4992234;28;87737;-55
2023/07/20 02:17:13;;;;;;;;;;;27.60;56.50;;;;;;4990265;28;89338;-51
2023/07/20 02:19:40;;;;;;;;;;;27.60;56.50;;;;;;4994930;28;86502;-56
2023/07/20 02:22:06;;;;;;;;;;;27.60;56.60;;;;;;4991712;28;86982;-49
2023/07/20 02:24:32;;;;;;;;;;;27.50;56.60;;;;;;4994632;28;88732;-52
2023/07/20 02:26:57;;;;;;;;;;;27.50;56.40;;;;;;4991199;28;88080;-52
2023/07/20 02:29:23;;;;;;;;;;;27.50;56.50;;;;;;4993911;28;89175;-54
2023/07/20 02:31:48;;;;;;;;;;;27.40;56.40;;;;;;4993472;28;88211;-51
2023/07/20 02:34:14;;;;;;;;;;;27.40;56.50;;;;;;4990881;28;87469;-57
2023/07/20 02:36:42;;;;;;;;;;;27.40;56.50;;;;;;4992363;28;88721;-58
2023/07/20 02:39:08;;;;;;;;;;;27.50;56.50;;;;;;4992456;28;87302;-53
2023/07/20 02:44:18;;;;;;;;;;;27.50;56.50;;;;;;4990967;28;86555;-52
2023/07/20 02:46:43;;;;;;;;;;;27.40;56.40;;;;;;4990488;28;87063;-57
2023/07/20 02:49:09;;;;;;;;;;;27.40;56.50;;;;;;4992085;28;87561;-59
2023/07/20 02:51:35;;;;;;;;;;;27.30;56.40;;;;;;4992736;28;89006;-55
2023/07/20 02:54:01;;;;;;;;;;;27.40;56.30;;;;;;4994125;28;87044;-58
2023/07/20 02:56:26;;;;;;;;;;;27.30;56.40;;;;;;4992558;28;90977;-51
2023/07/20 02:58:52;;;;;;;;;;;27.30;56.40;;;;;;4991081;28;87209;-58
2023/07/20 03:01:18;;;;;;;;;;;27.30;56.40;;;;;;4984832;28;87979;-54
2023/07/20 03:03:46;;;;;;;;;;;27.30;56.40;;;;;;4988555;28;88194;-57
2023/07/20 03:06:15;;;;;;;;;;;27.30;56.40;;;;;;4993192;28;87309;-53
2023/07/20 03:08:41;;;;;;;;;;;27.30;56.40;;;;;;4992975;28;87581;-55
2023/07/20 03:11:07;;;;;;;;;;;27.30;56.40;;;;;;4991778;28;89408;-56
2023/07/20 03:13:33;;;;;;;;;;;27.20;56.40;;;;;;4995868;28;87115;-55
2023/07/20 03:15:58;;;;;;;;;;;27.20;56.40;;;;;;4986782;28;88802;-55
2023/07/20 03:18:24;;;;;;;;;;;27.20;56.30;;;;;;4991878;28;87835;-51
2023/07/20 03:20:49;;;;;;;;;;;27.20;56.40;;;;;;4985009;28;87443;-57
2023/07/20 03:23:16;;;;;;;;;;;27.20;56.30;;;;;;4984301;28;88171;-55
2023/07/20 03:25:41;;;;;;;;;;;27.20;56.30;;;;;;4990424;28;87090;-55
2023/07/20 03:28:07;;;;;;;;;;;27.20;56.20;;;;;;4992381;28;87579;-57
2023/07/20 03:30:33;;;;;;;;;;;27.10;56.30;;;;;;4978652;28;89835;-51
2023/07/20 03:32:58;;;;;;;;;;;27.10;56.40;;;;;;4985704;28;86717;-54
2023/07/20 03:35:24;;;;;;;;;;;27.10;56.30;;;;;;4994847;28;87068;-53
2023/07/20 03:37:49;;;;;;;;;;;27.10;56.30;;;;;;4986227;28;87146;-55
2023/07/20 03:40:16;;;;;;;;;;;27.10;56.30;;;;;;4984257;28;88914;-55
2023/07/20 03:42:41;;;;;;;;;;;27.00;56.30;;;;;;4986841;28;89559;-54
2023/07/20 03:45:07;;;;;;;;;;;27.00;56.30;;;;;;4990966;28;87100;-51
2023/07/20 03:47:33;;;;;;;;;;;27.00;56.30;;;;;;4989763;28;87276;-53
2023/07/20 03:49:58;;;;;;;;;;;27.00;56.30;;;;;;4979921;28;89038;-54
2023/07/20 03:52:24;;;;;;;;;;;27.00;57.00;;;;;;4986275;28;87233;-54
2023/07/20 03:54:51;;;;;;;;;;;27.00;56.30;;;;;;4993240;28;88889;-49
2023/07/20 03:57:16;;;;;;;;;;;27.00;56.30;;;;;;4992151;28;88157;-54
2023/07/20 03:59:44;;;;;;;;;;;26.90;56.20;;;;;;4985840;28;87768;-58
2023/07/20 04:02:10;;;;;;;;;;;26.90;56.20;;;;;;4989732;28;89531;-55
2023/07/20 04:04:35;;;;;;;;;;;26.90;56.20;;;;;;4990455;28;89717;-54
2023/07/20 04:07:01;;;;;;;;;;;26.90;56.30;;;;;;4980654;28;88448;-50
2023/07/20 04:09:26;;;;;;;;;;;26.90;56.30;;;;;;4985210;28;89024;-55
2023/07/20 04:11:52;;;;;;;;;;;26.90;56.20;;;;;;4987876;28;87397;-55
2023/07/20 04:14:17;;;;;;;;;;;26.90;56.30;;;;;;4991233;28;87495;-55
2023/07/20 04:16:43;;;;;;;;;;;26.90;56.30;;;;;;4984925;28;88026;-56
2023/07/20 04:19:08;;;;;;;;;;;26.80;56.30;;;;;;4983855;28;87257;-56
2023/07/20 04:21:39;;;;;;;;;;;26.80;56.80;;;;;;4985581;28;86940;-53
2023/07/20 04:24:04;;;;;;;;;;;26.80;56.30;;;;;;4989397;28;87140;-55
2023/07/20 04:26:30;;;;;;;;;;;26.80;56.30;;;;;;4977058;28;87654;-54
2023/07/20 04:28:55;;;;;;;;;;;26.80;56.40;;;;;;4983719;28;89055;-52
2023/07/20 04:31:21;;;;;;;;;;;26.70;56.20;;;;;;4991905;28;87132;-54
2023/07/20 04:33:47;;;;;;;;;;;26.80;56.90;;;;;;4987146;28;87409;-54
2023/07/20 04:36:14;;;;;;;;;;;26.70;56.30;;;;;;4987869;28;88985;-51
2023/07/20 04:38:40;;;;;;;;;;;26.70;56.30;;;;;;4984148;28;87372;-55
2023/07/20 04:41:05;;;;;;;;;;;26.70;56.30;;;;;;4992578;28;87371;-56
2023/07/20 04:43:31;;;;;;;;;;;26.70;56.30;;;;;;4988303;28;87257;-51
2023/07/20 04:45:56;;;;;;;;;;;26.70;56.30;;;;;;4981379;28;88093;-50
2023/07/20 04:48:22;;;;;;;;;;;26.70;56.40;;;;;;4989317;28;88040;-55
2023/07/20 04:50:47;;;;;;;;;;;26.70;56.30;;;;;;4992815;28;87133;-56
2023/07/20 04:53:13;;;;;;;;;;;26.60;56.30;;;;;;4986022;28;88788;-57
2023/07/20 04:55:39;;;;;;;;;;;26.70;57.00;;;;;;4981370;28;88060;-59
2023/07/20 04:58:05;;;;;;;;;;;26.60;56.30;;;;;;4989197;28;87159;-55
2023/07/20 05:00:31;;;;;;;;;;;26.60;56.40;;;;;;4994424;28;87872;-55
2023/07/20 05:02:56;;;;;;;;;;;26.60;56.40;;;;;;4982335;28;87792;-54
2023/07/20 05:05:22;;;;;;;;;;;26.60;56.30;;;;;;4978065;28;89185;-57
2023/07/20 05:07:48;;;;;;;;;;;26.60;56.40;;;;;;4988248;28;89317;-53
2023/07/20 05:10:13;;;;;;;;;;;26.50;56.40;;;;;;4991271;28;86388;-57
2023/07/20 05:12:39;;;;;;;;;;;26.60;56.60;;;;;;4986175;28;88816;-53
2023/07/20 05:15:04;;;;;;;;;;;26.50;56.50;;;;;;4979931;28;88101;-52
2023/07/20 05:17:30;;;;;;;;;;;26.50;56.50;;;;;;4992816;28;88090;-54
2023/07/20 05:19:55;;;;;;;;;;;26.60;56.50;;;;;;4988468;28;89914;-55
2023/07/20 05:22:21;;;;;;;;;;;26.60;57.10;;;;;;4986072;28;88062;-50
2023/07/20 05:24:46;;;;;;;;;;;26.60;56.50;;;;;;4981239;28;87668;-53
2023/07/20 05:27:12;;;;;;;;;;;26.50;56.50;;;;;;4990808;28;88088;-54
2023/07/20 05:29:37;;;;;;;;;;;26.60;56.50;;;;;;4991619;28;87050;-56
2023/07/20 05:32:03;;;;;;;;;;;26.60;56.60;;;;;;4982841;28;88091;-58
2023/07/20 05:34:28;;;;;;;;;;;26.60;56.60;;;;;;4982769;28;87520;-56
2023/07/20 05:37:09;;;;;;;;;;;26.60;56.60;;;;;;4992251;28;87016;-52
2023/07/20 05:39:34;;;;;;;;;;;26.60;56.60;;;;;;4982480;28;87092;-54
2023/07/20 05:42:00;;;;;;;;;;;26.60;56.60;;;;;;4978264;28;88814;-52
2023/07/20 05:44:25;;;;;;;;;;;26.60;56.70;;;;;;4981335;28;87055;-56
2023/07/20 05:46:51;;;;;;;;;;;26.50;56.70;;;;;;4990930;28;88104;-54
2023/07/20 05:49:16;;;;;;;;;;;26.50;56.70;;;;;;4989291;28;87135;-54
2023/07/20 05:51:42;;;;;;;;;;;26.50;56.70;;;;;;4982360;28;87385;-53
2023/07/20 05:54:08;;;;;;;;;;;26.50;56.70;;;;;;4989194;28;90191;-56
2023/07/20 05:56:33;;;;;;;;;;;26.60;56.80;;;;;;4993198;28;87289;-55
2023/07/20 05:58:59;;;;;;;;;;;26.50;56.70;;;;;;4989531;28;87444;-49
2023/07/20 06:01:28;;;;;;;;;;;26.50;56.90;;;;;;4981138;28;88307;-51
2023/07/20 06:03:53;;;;;;;;;;;26.50;57.00;;;;;;4984047;28;87322;-56
2023/07/20 06:06:19;;;;;;;;;;;26.50;56.90;;;;;;4995285;28;88121;-52
2023/07/20 06:08:45;;;;;;;;;;;26.50;56.90;;;;;;4989575;28;87066;-53
2023/07/20 06:11:11;;;;;;;;;;;26.50;56.90;;;;;;4989318;28;88898;-55
2023/07/20 06:13:36;;;;;;;;;;;26.50;56.90;;;;;;4989113;28;88096;-55
2023/07/20 06:16:03;;;;;;;;;;;26.50;56.90;;;;;;4994050;28;87139;-53
2023/07/20 06:18:30;;;;;;;;;;;26.50;57.00;;;;;;4983800;28;89163;-51
2023/07/20 06:20:55;;;;;;;;;;;26.50;56.90;;;;;;4984518;28;89384;-55
2023/07/20 06:23:21;;;;;;;;;;;26.50;57.00;;;;;;4992704;28;86649;-57
2023/07/20 06:25:47;;;;;;;;;;;26.50;57.00;;;;;;4994156;28;87127;-58
2023/07/20 06:28:12;;;;;;;;;;;26.50;57.00;;;;;;4984230;28;88376;-53
2023/07/20 06:30:38;;;;;;;;;;;26.50;57.10;;;;;;4984722;28;88075;-54
2023/07/20 06:33:03;;;;;;;;;;;26.50;57.00;;;;;;4994374;28;89448;-55
2023/07/20 06:35:29;;;;;;;;;;;26.50;57.10;;;;;;4989444;28;87116;-55
2023/07/20 06:37:54;;;;;;;;;;;26.50;57.10;;;;;;4989981;28;87444;-55
2023/07/20 06:40:20;;;;;;;;;;;26.50;57.10;;;;;;4986403;28;88076;-57
2023/07/20 06:42:46;;;;;;;;;;;26.50;57.10;;;;;;4994016;28;87137;-54
2023/07/20 06:45:12;;;;;;;;;;;26.50;57.10;;;;;;4991209;28;87097;-55
2023/07/20 06:47:40;;;;;;;;;;;26.60;57.10;;;;;;4983566;28;87302;-55
2023/07/20 06:50:09;;;;;;;;;;;26.50;57.00;;;;;;4991582;28;87143;-51
2023/07/20 06:52:34;;;;;;;;;;;26.50;57.10;;;;;;4987598;28;87970;-51
2023/07/20 06:55:00;;;;;;;;;;;26.50;57.20;;;;;;4991119;28;88182;-54
2023/07/20 06:57:26;;;;;;;;;;;26.50;57.20;;;;;;4987650;28;88830;-55
2023/07/20 06:59:51;;;;;;;;;;;26.50;57.20;;;;;;4985138;28;88158;-54
2023/07/20 07:02:17;;;;;;;;;;;26.50;57.30;;;;;;4994037;28;87146;-54
2023/07/20 07:04:42;;;;;;;;;;;26.50;57.20;;;;;;4985270;28;88996;-55
2023/07/20 07:07:09;;;;;;;;;;;26.50;57.40;;;;;;4979377;28;87908;-53
2023/07/20 07:09:34;;;;;;;;;;;26.50;57.30;;;;;;4993695;28;87368;-57
2023/07/20 07:12:00;;;;;;;;;;;26.50;57.30;;;;;;4994352;28;87278;-50
2023/07/20 07:14:25;;;;;;;;;;;26.50;57.30;;;;;;4985508;28;87856;-56
2023/07/20 07:16:51;;;;;;;;;;;26.50;57.30;;;;;;4981851;28;87574;-49
2023/07/20 07:19:16;;;;;;;;;;;26.50;57.30;;;;;;4993696;28;88967;-55
2023/07/20 07:21:42;;;;;;;;;;;26.50;57.30;;;;;;4987454;28;87310;-52
2023/07/20 07:24:07;;;;;;;;;;;26.50;57.30;;;;;;4985001;28;87324;-56
2023/07/20 07:26:33;;;;;;;;;;;26.50;57.40;;;;;;4988312;28;88002;-49
2023/07/20 07:28:58;;;;;;;;;;;26.50;57.30;;;;;;4990634;28;87510;-56
2023/07/20 07:31:28;;;;;;;;;;;26.60;57.40;;;;;;4994768;28;87668;-59
2023/07/20 07:33:54;;;;;;;;;;;26.50;57.40;;;;;;4978770;28;87196;-56
2023/07/20 07:36:19;;;;;;;;;;;26.50;57.40;;;;;;4978567;28;88825;-51
2023/07/20 07:38:45;;;;;;;;;;;26.50;57.40;;;;;;4993120;28;87541;-55
2023/07/20 07:41:10;;;;;;;;;;;26.50;57.40;;;;;;4992498;28;87152;-50
2023/07/20 07:43:36;;;;;;;;;;;26.50;57.40;;;;;;4984258;28;88079;-54
2023/07/20 07:46:01;;;;;;;;;;;26.50;57.40;;;;;;4988050;28;89606;-52
2023/07/20 07:48:27;;;;;;;;;;;26.50;57.50;;;;;;4994481;28;87246;-58
2023/07/20 07:50:53;;;;;;;;;;;26.50;57.40;;;;;;4983950;28;87323;-53
2023/07/20 07:53:20;;;;;;;;;;;26.50;57.40;;;;;;4987382;28;88377;-55
2023/07/20 07:55:47;;;;;;;;;;;26.50;57.40;;;;;;4984135;28;88882;-54
2023/07/20 07:58:13;;;;;;;;;;;26.50;57.40;;;;;;4992478;28;88171;-51
2023/07/20 08:00:39;;;;;;;;;;;26.50;57.50;;;;;;4989669;28;86487;-54
2023/07/20 08:03:06;;;;;;;;;;;26.50;57.50;;;;;;4979435;28;87185;-53
2023/07/20 08:05:31;;;;;;;;;;;26.50;57.50;;;;;;4986702;28;88001;-56
2023/07/20 08:07:57;;;;;;;;;;;26.50;57.50;;;;;;4990375;28;88183;-52
2023/07/20 08:10:22;;;;;;;;;;;26.50;57.50;;;;;;4984674;28;88940;-56
2023/07/20 08:12:48;;;;;;;;;;;26.60;58.20;;;;;;4982762;28;89732;-50
2023/07/20 08:15:14;;;;;;;;;;;26.50;57.50;;;;;;4989972;28;87217;-52
2023/07/20 08:17:41;;;;;;;;;;;26.50;57.50;;;;;;4992871;28;88049;-58
2023/07/20 08:20:06;;;;;;;;;;;26.60;57.60;;;;;;4987534;28;87154;-51
2023/07/20 08:22:32;;;;;;;;;;;26.50;57.50;;;;;;4983233;28;87535;-57
2023/07/20 08:24:58;;;;;;;;;;;26.50;57.60;;;;;;4987249;28;87425;-55
2023/07/20 08:27:23;;;;;;;;;;;26.50;57.50;;;;;;4992583;28;87035;-53
2023/07/20 08:29:49;;;;;;;;;;;26.60;57.60;;;;;;4986092;28;87801;-55
2023/07/20 08:32:15;;;;;;;;;;;26.60;57.60;;;;;;4983391;28;90281;-56
2023/07/20 08:34:41;;;;;;;;;;;26.50;57.60;;;;;;4989861;28;87206;-55
2023/07/20 08:37:10;;;;;;;;;;;26.60;57.60;;;;;;4992538;28;87379;-56
2023/07/20 08:39:35;;;;;;;;;;;26.60;57.60;;;;;;4981588;28;87704;-55
2023/07/20 08:42:04;;;;;;;;;;;26.60;57.60;;;;;;4979040;28;88612;-55
2023/07/20 08:44:30;;;;;;;;;;;26.60;57.60;;;;;;4989784;28;89370;-58
2023/07/20 08:46:57;;;;;;;;;;;26.60;57.70;;;;;;4989835;28;87714;-54
2023/07/20 08:49:23;;;;;;;;;;;26.60;57.70;;;;;;4987743;28;87517;-54
2023/07/20 08:51:48;;;;;;;;;;;26.60;57.60;;;;;;4984750;28;87544;-57
2023/07/20 08:54:14;;;;;;;;;;;26.60;57.70;;;;;;4991464;28;87555;-57
2023/07/20 08:56:40;;;;;;;;;;;26.60;57.60;;;;;;4991371;28;88775;-57
2023/07/20 08:59:07;;;;;;;;;;;26.60;57.60;;;;;;4993384;28;88098;-54
2023/07/20 09:01:34;;;;;;;;;;;26.60;57.60;;;;;;4993651;28;87326;-57
2023/07/20 09:04:00;;;;;;;;;;;26.60;57.70;;;;;;4986084;28;87969;-57
2023/07/20 09:06:27;;;;;;;;;;;26.70;57.70;;;;;;4987665;28;87082;-52
2023/07/20 09:08:52;;;;;;;;;;;26.60;57.60;;;;;;4991010;28;87271;-58
2023/07/20 09:11:18;;;;;;;;;;;26.60;57.60;;;;;;4992709;28;88530;-58
2023/07/20 09:13:43;;;;;;;;;;;26.70;57.60;;;;;;4991510;28;86396;-52
2023/07/20 09:16:13;;;;;;;;;;;26.70;57.60;;;;;;4992015;28;87003;-54
2023/07/20 09:18:38;;;;;;;;;;;26.70;57.50;;;;;;4993501;28;91343;-59
2023/07/20 09:21:06;;;;;;;;;;;26.70;57.60;;;;;;4987596;28;88192;-56
2023/07/20 09:23:39;;;;;;;;;;;26.70;57.50;;;;;;4992839;28;89512;-55
2023/07/20 09:26:12;;;;;;;;;;;26.70;57.50;;;;;;4987643;28;87220;-50
2023/07/20 09:28:42;;;;;;;;;;;26.70;57.50;;;;;;4993106;28;87738;-54
2023/07/20 09:31:15;;;;;;;;;;;26.70;57.50;;;;;;4995592;28;90071;-59
2023/07/20 09:33:41;;;;;;;;;;;26.70;57.50;;;;;;4989773;28;87038;-53
2023/07/20 09:36:06;;;;;;;;;;;26.70;57.50;;;;;;4993140;28;87425;-58
2023/07/20 09:38:32;;;;;;;;;;;26.70;57.40;;;;;;4995895;28;88097;-55
2023/07/20 09:40:57;;;;;;;;;;;26.70;57.40;;;;;;4996924;28;87226;-51
2023/07/20 09:43:23;;;;;;;;;;;26.70;57.30;;;;;;4991844;28;88636;-52
2023/07/20 09:45:48;;;;;;;;;;;26.80;57.40;;;;;;4994035;28;88048;-52
2023/07/20 09:48:14;;;;;;;;;;;26.80;57.30;;;;;;4995070;28;89958;-53
2023/07/20 09:50:41;;;;;;;;;;;26.80;57.30;;;;;;4993686;28;87301;-53
2023/07/20 09:53:08;;;;;;;;;;;26.80;57.20;;;;;;4995062;28;87525;-53
2023/07/20 09:55:34;;;;;;;;;;;26.80;57.20;;;;;;4992973;28;87167;-54
2023/07/20 09:58:00;;;;;;;;;;;26.80;57.30;;;;;;4987792;28;87985;-52
2023/07/20 10:00:25;;;;;;;;;;;26.80;57.30;;;;;;4996030;28;87524;-54
2023/07/20 10:02:51;;;;;;;;;;;26.80;57.30;;;;;;4996460;28;86636;-52
2023/07/20 10:05:17;;;;;;;;;;;26.80;57.30;;;;;;4994869;28;87215;-58
2023/07/20 10:07:45;;;;;;;;;;;26.80;57.30;;;;;;4992757;28;87331;-55
2023/07/20 10:10:11;;;;;;;;;;;26.80;57.40;;;;;;4993264;28;90493;-57
2023/07/20 10:12:37;;;;;;;;;;;26.80;57.30;;;;;;4993046;28;87437;-50
2023/07/20 10:15:08;;;;;;;;;;;26.80;57.30;;;;;;4993246;28;87551;-56
2023/07/20 10:17:35;;;;;;;;;;;26.80;57.30;;;;;;4995900;28;88155;-55
2023/07/20 10:20:03;;;;;;;;;;;26.90;57.30;;;;;;4992376;28;86984;-55
2023/07/20 10:22:30;;;;;;;;;;;26.90;57.20;;;;;;4992532;28;89255;-51
2023/07/20 10:24:58;;;;;;;;;;;26.90;57.10;;;;;;4996892;28;87367;-56
2023/07/20 10:27:24;;;;;;;;;;;26.90;57.10;;;;;;4992468;28;89080;-55
2023/07/20 10:29:50;;;;;;;;;;;26.90;57.10;;;;;;4993932;28;89167;-53
2023/07/20 10:32:16;;;;;;;;;;;26.90;57.00;;;;;;4992879;28;87149;-52
2023/07/20 10:34:42;;;;;;;;;;;26.90;57.00;;;;;;4994713;28;88076;-55
2023/07/20 10:37:08;;;;;;;;;;;27.00;57.00;;;;;;4991257;28;87829;-53
2023/07/20 10:39:34;;;;;;;;;;;27.00;57.00;;;;;;4987602;28;87123;-55
2023/07/20 10:42:19;;;;;;;;;;;26.90;56.90;;;;;;4995132;28;88134;-54
2023/07/20 10:44:46;;;;;;;;;;;27.00;56.90;;;;;;4989024;28;88132;-55
2023/07/20 10:47:13;;;;;;;;;;;27.00;56.90;;;;;;4998070;28;87169;-53
2023/07/20 10:49:57;;;;;;;;;;;27.00;56.90;;;;;;4992150;28;87489;-50
2023/07/20 10:52:22;;;;;;;;;;;27.00;57.00;;;;;;4992004;28;87352;-58
2023/07/20 10:54:51;;;;;;;;;;;27.00;57.00;;;;;;4995433;28;87023;-49
2023/07/20 10:57:37;;;;;;;;;;;27.00;56.90;;;;;;4988064;28;88611;-53
2023/07/20 11:00:14;;;;;;;;;;;27.00;57.00;;;;;;4990194;28;88121;-55
2023/07/20 11:02:44;;;;;;;;;;;27.00;57.00;;;;;;4990490;28;88480;-52
2023/07/20 11:05:29;;;;;;;;;;;27.10;57.00;;;;;;4992749;28;89608;-50
2023/07/20 11:07:54;;;;;;;;;;;27.10;57.10;;;;;;4987215;28;87189;-55
2023/07/20 11:10:20;;;;;;;;;;;27.00;57.00;;;;;;4996169;28;87634;-54
2023/07/20 11:13:22;;;;;;;;;;;27.00;57.10;;;;;;4992957;28;87120;-56
2023/07/20 11:15:56;;;;;;;;;;;27.10;57.10;;;;;;4987111;28;88879;-53
2023/07/20 11:18:25;;;;;;;;;;;27.10;57.10;;;;;;4991056;28;87311;-55
2023/07/20 11:20:50;;;;;;;;;;;27.10;57.10;;;;;;4992597;28;87095;-53
2023/07/20 11:23:16;;;;;;;;;;;27.10;57.10;;;;;;4992274;28;87319;-49
2023/07/20 11:25:42;;;;;;;;;;;27.10;57.10;;;;;;4992014;28;88792;-53
2023/07/20 11:28:09;;;;;;;;;;;27.20;57.10;;;;;;4992049;28;87143;-53
2023/07/20 11:30:34;;;;;;;;;;;27.20;57.00;;;;;;4989252;28;87389;-52
2023/07/20 11:33:00;;;;;;;;;;;27.20;57.00;;;;;;4994130;28;87121;-54
2023/07/20 11:35:25;;;;;;;;;;;27.20;57.00;;;;;;4990785;28;89071;-50
2023/07/20 11:37:51;;;;;;;;;;;27.30;57.00;;;;;;4990770;28;88267;-54
2023/07/20 11:40:16;;;;;;;;;;;27.30;57.00;;;;;;4993988;28;87552;-50
2023/07/20 11:42:42;;;;;;;;;;;27.20;56.90;;;;;;4992156;28;87447;-53
2023/07/20 11:45:09;;;;;;;;;;;27.30;57.00;;;;;;4992641;28;87748;-57
2023/07/20 11:47:39;;;;;;;;;;;27.30;57.00;;;;;;4992064;28;87050;-55
2023/07/20 11:50:05;;;;;;;;;;;27.30;57.00;;;;;;4990832;28;88051;-52
2023/07/20 11:52:31;;;;;;;;;;;27.30;57.00;;;;;;4994565;28;88293;-58
2023/07/20 11:54:57;;;;;;;;;;;27.30;57.00;;;;;;4991147;28;87854;-56
2023/07/20 11:57:22;;;;;;;;;;;27.40;57.10;;;;;;4993704;28;88150;-52
2023/07/20 11:59:58;;;;;;;;;;;27.40;57.10;;;;;;4989938;28;87223;-50
2023/07/20 12:02:26;;;;;;;;;;;27.40;57.10;;;;;;4989452;28;88803;-54
2023/07/20 12:04:52;;;;;;;;;;;27.40;57.10;;;;;;4991838;28;88180;-55
2023/07/20 12:07:21;;;;;;;;;;;27.40;57.10;;;;;;4992530;28;86781;-53
2023/07/20 12:10:05;;;;;;;;;;;27.40;57.10;;;;;;4991148;28;87037;-51
2023/07/20 12:12:34;;;;;;;;;;;27.40;57.00;;;;;;4990342;28;88089;-56
2023/07/20 12:15:18;;;;;;;;;;;27.40;57.10;;;;;;4992510;28;88228;-59
2023/07/20 12:17:49;;;;;;;;;;;27.50;57.10;;;;;;4989745;28;87970;-56
2023/07/20 12:20:24;;;;;;;;;;;27.40;57.00;;;;;;4990730;28;87274;-52
2023/07/20 12:22:50;;;;;;;;;;;27.40;56.90;;;;;;4985080;28;87366;-50
2023/07/20 12:25:15;;;;;;;;;;;27.50;57.10;;;;;;4990551;28;87961;-52
2023/07/20 12:27:44;;;;;;;;;;;27.50;57.00;;;;;;4992925;28;87098;-57
2023/07/20 12:30:09;;;;;;;;;;;27.50;57.00;;;;;;4988811;28;89001;-56
2023/07/20 12:32:35;;;;;;;;;;;27.50;57.00;;;;;;4992051;28;87350;-56
2023/07/20 12:35:00;;;;;;;;;;;27.50;57.00;;;;;;4991146;28;87147;-54
2023/07/20 12:37:26;;;;;;;;;;;27.60;57.00;;;;;;4992208;28;87240;-56
2023/07/20 12:39:52;;;;;;;;;;;27.60;56.90;;;;;;4992899;28;89050;-51
2023/07/20 12:42:18;;;;;;;;;;;27.60;57.00;;;;;;4990531;28;88420;-52
2023/07/20 12:44:43;;;;;;;;;;;27.60;56.80;;;;;;4989732;28;87302;-53
2023/07/20 12:47:09;;;;;;;;;;;27.60;56.80;;;;;;4985686;28;87151;-59
2023/07/20 12:49:34;;;;;;;;;;;27.60;56.80;;;;;;4993096;28;89456;-56
2023/07/20 12:52:00;;;;;;;;;;;27.60;56.70;;;;;;4990485;28;87604;-54
2023/07/20 12:54:25;;;;;;;;;;;27.70;56.80;;;;;;4990738;28;87389;-56
2023/07/20 12:56:51;;;;;;;;;;;27.70;56.80;;;;;;4992736;28;87469;-56
2023/07/20 12:59:16;;;;;;;;;;;27.70;56.80;;;;;;4993905;28;87299;-55
2023/07/20 13:01:43;;;;;;;;;;;27.70;56.60;;;;;;4989790;28;87508;-49
2023/07/20 13:04:10;;;;;;;;;;;27.70;56.60;;;;;;4994482;28;90633;-51
2023/07/20 13:06:35;;;;;;;;;;;27.70;56.60;;;;;;4994174;28;87615;-50
2023/07/20 13:09:01;;;;;;;;;;;27.70;56.60;;;;;;4995704;28;87284;-56
2023/07/20 13:11:26;;;;;;;;;;;27.80;56.60;;;;;;4993200;28;89550;-54
2023/07/20 13:13:52;;;;;;;;;;;27.80;56.60;;;;;;4996757;28;87202;-54
2023/07/20 13:16:17;;;;;;;;;;;27.80;56.60;;;;;;4993598;28;87410;-56
2023/07/20 13:18:43;;;;;;;;;;;27.80;56.60;;;;;;4992671;28;89980;-56
2023/07/20 13:21:10;;;;;;;;;;;27.80;56.60;;;;;;4998638;28;86490;-51
2023/07/20 13:23:36;;;;;;;;;;;27.90;56.60;;;;;;4988441;28;89844;-55
2023/07/20 13:26:03;;;;;;;;;;;27.90;56.50;;;;;;4994004;28;87165;-54
2023/07/20 13:28:28;;;;;;;;;;;27.90;56.40;;;;;;4994142;28;89009;-55
2023/07/20 13:30:54;;;;;;;;;;;27.90;56.60;;;;;;4992701;28;87223;-54
2023/07/20 13:33:20;;;;;;;;;;;27.90;56.30;;;;;;4995127;28;89059;-53
2023/07/20 13:35:45;;;;;;;;;;;27.90;56.30;;;;;;4993750;28;87447;-55
2023/07/20 13:38:11;;;;;;;;;;;27.90;56.30;;;;;;4995160;28;88036;-57
2023/07/20 13:40:36;;;;;;;;;;;28.00;56.20;;;;;;4996216;28;87548;-58
2023/07/20 13:43:02;;;;;;;;;;;28.00;56.40;;;;;;4996126;28;87952;-55
2023/07/20 13:45:27;;;;;;;;;;;28.00;56.20;;;;;;4992787;28;86346;-55
2023/07/20 13:47:53;;;;;;;;;;;28.00;55.90;;;;;;4996106;28;87219;-55
2023/07/20 13:50:18;;;;;;;;;;;28.10;56.10;;;;;;4993295;28;88001;-52
2023/07/20 13:52:44;;;;;;;;;;;28.10;56.10;;;;;;4994651;28;88602;-57
2023/07/20 13:55:09;;;;;;;;;;;28.10;56.20;;;;;;4993054;28;89522;-57
2023/07/20 13:57:35;;;;;;;;;;;28.20;56.20;;;;;;4994380;28;88578;-58
2023/07/20 14:00:02;;;;;;;;;;;28.20;56.20;;;;;;4994536;28;86917;-57
2023/07/20 14:02:27;;;;;;;;;;;28.20;56.10;;;;;;4995272;28;88762;-50
2023/07/20 14:04:55;;;;;;;;;;;28.30;56.20;;;;;;4994929;28;87102;-56
2023/07/20 14:07:21;;;;;;;;;;;28.30;56.20;;;;;;4992691;28;89209;-56
2023/07/20 14:09:47;;;;;;;;;;;28.30;56.30;;;;;;4994433;28;88744;-56
2023/07/20 14:12:14;;;;;;;;;;;28.30;56.20;;;;;;4991934;28;87529;-56
2023/07/20 14:14:42;;;;;;;;;;;28.30;56.10;;;;;;4994539;28;87605;-54
2023/07/20 14:17:07;;;;;;;;;;;28.40;56.10;;;;;;4991750;28;89045;-55